Stevens Point, Wisconsin
Current Conditions -  °F | °C
As of 2:55 PM on Sunday 23 Nov 2014 (Local Time) from KSTE Reporting Station
Drizzle Drizzle  
Wind Chill: 43°   Ceiling: 300
Heat Index: 46°   Visibility: 1.5mi
Dew Point: 46°   Wind: 5mph
Humidity: 100%   Direction: 150°SSE
Pressure: 29.42"   Gusts: NA
Location:  44.52°N, 89.57°W
Report Text: KSTE 232055Z AUTO 15004KT 1 1/2SM -DZ OVC003 08/08 A2942 RMK AO2 P0001 60001 T00760076
Loading
Personal Weather Stations






























Interactive Weather Map New forecast layout! Learn more

10-Day Weather Forecast

Advertisements
Track Severe Weather on mobile